createdAt,value
2019-05-13T00:00:04.126Z,0.00
2019-05-13T00:01:07.154Z,0.00
2019-05-13T00:02:04.736Z,0.00
2019-05-13T00:03:04.083Z,0.00
2019-05-13T00:04:04.017Z,0.00
2019-05-13T00:05:04.101Z,0.00
2019-05-13T00:06:04.302Z,0.00
2019-05-13T00:07:04.739Z,0.00
2019-05-13T00:08:03.918Z,0.00
2019-05-13T00:09:03.919Z,0.00
2019-05-13T00:10:04.147Z,0.00
2019-05-13T00:11:04.443Z,0.00
2019-05-13T00:12:04.725Z,0.00
2019-05-13T00:13:04.655Z,0.00
2019-05-13T00:14:04.374Z,0.00
2019-05-13T00:15:03.866Z,0.00
2019-05-13T00:16:03.954Z,0.00
2019-05-13T00:17:04.268Z,0.00
2019-05-13T00:18:04.198Z,0.00
2019-05-13T00:19:04.147Z,0.00
2019-05-13T00:20:04.088Z,0.00
2019-05-13T00:21:03.846Z,0.00
2019-05-13T00:22:04.016Z,0.00
2019-05-13T00:23:04.127Z,0.00
2019-05-13T00:24:04.113Z,0.00
2019-05-13T00:25:04.007Z,0.00
2019-05-13T00:26:03.981Z,0.00
2019-05-13T00:27:04.087Z,0.00
2019-05-13T00:28:04.102Z,0.00
2019-05-13T00:29:04.152Z,0.00
2019-05-13T00:30:04.287Z,0.00
2019-05-13T00:31:03.516Z,0.00
2019-05-13T00:32:04.770Z,0.00
2019-05-13T00:33:03.787Z,0.00
2019-05-13T00:34:03.853Z,0.00
2019-05-13T00:35:03.955Z,0.00
2019-05-13T00:36:04.040Z,0.00
2019-05-13T00:37:11.230Z,0.00
2019-05-13T00:38:03.912Z,0.00
2019-05-13T00:39:03.925Z,0.00
2019-05-13T00:40:04.001Z,0.00
2019-05-13T00:41:03.706Z,0.00
2019-05-13T00:42:04.030Z,0.00
2019-05-13T00:43:03.924Z,0.00
2019-05-13T00:44:03.873Z,0.00
2019-05-13T00:45:04.067Z,0.00
2019-05-13T00:46:03.849Z,0.00
2019-05-13T00:47:04.493Z,0.00
2019-05-13T00:48:04.603Z,0.00
2019-05-13T00:49:04.810Z,0.00
2019-05-13T00:50:03.667Z,0.00
2019-05-13T00:51:03.842Z,0.00
2019-05-13T00:52:03.885Z,0.00
2019-05-13T00:53:04.438Z,0.00
2019-05-13T00:54:04.396Z,0.00
2019-05-13T00:55:04.283Z,0.00
2019-05-13T00:56:04.016Z,0.00
2019-05-13T00:57:04.199Z,0.00
2019-05-13T00:58:04.266Z,0.00
2019-05-13T00:59:03.695Z,0.00
2019-05-13T01:00:03.499Z,0.00
2019-05-13T01:01:03.624Z,0.00
2019-05-13T01:02:03.578Z,0.00
2019-05-13T01:03:04.159Z,0.00
2019-05-13T01:04:03.964Z,0.00
2019-05-13T01:05:04.331Z,0.00
2019-05-13T01:06:04.321Z,0.00
2019-05-13T01:07:04.384Z,0.00
2019-05-13T01:08:04.379Z,0.00
2019-05-13T01:09:04.116Z,0.00
2019-05-13T01:10:04.231Z,0.00
2019-05-13T01:11:04.231Z,0.00
2019-05-13T01:12:04.124Z,0.00
2019-05-13T01:13:04.582Z,0.00
2019-05-13T01:14:04.115Z,0.00
2019-05-13T01:15:04.026Z,0.00
2019-05-13T01:16:08.701Z,0.00
2019-05-13T01:17:03.910Z,0.00
2019-05-13T01:18:03.956Z,0.00
2019-05-13T01:19:04.044Z,0.00
2019-05-13T01:20:03.981Z,0.00
2019-05-13T01:21:04.178Z,0.00
2019-05-13T01:22:03.431Z,0.00
2019-05-13T01:23:03.682Z,0.00
2019-05-13T01:24:03.719Z,0.00
2019-05-13T01:25:03.915Z,0.00
2019-05-13T01:26:03.883Z,0.00
2019-05-13T01:27:03.805Z,0.00
2019-05-13T01:28:04.222Z,0.00
2019-05-13T01:29:03.977Z,0.00
2019-05-13T01:30:03.956Z,0.00
2019-05-13T01:31:03.961Z,0.00
2019-05-13T01:32:01.641Z,0.00
2019-05-13T01:33:01.509Z,0.00
2019-05-13T01:34:03.882Z,0.00
2019-05-13T01:35:01.451Z,0.00
2019-05-13T01:36:01.471Z,0.00
2019-05-13T01:37:01.403Z,0.00
2019-05-13T01:38:01.392Z,0.00
2019-05-13T01:39:01.342Z,0.00
2019-05-13T01:40:01.433Z,0.00
2019-05-13T01:41:01.292Z,0.00
2019-05-13T01:42:03.484Z,0.00
2019-05-13T01:43:03.381Z,0.00
2019-05-13T01:44:03.892Z,0.00
2019-05-13T01:45:01.200Z,0.00
2019-05-13T01:46:01.140Z,0.00
2019-05-13T01:47:01.143Z,0.00
2019-05-13T01:48:01.085Z,0.00
2019-05-13T01:49:01.152Z,0.00
2019-05-13T01:50:03.428Z,0.00
2019-05-13T01:51:03.560Z,0.00
2019-05-13T01:52:03.467Z,0.00
2019-05-13T01:53:00.984Z,0.00
2019-05-13T01:54:00.929Z,0.00
2019-05-13T01:55:00.992Z,0.00
2019-05-13T01:56:00.847Z,0.00
2019-05-13T01:57:00.901Z,0.00
2019-05-13T01:58:00.789Z,0.00
2019-05-13T01:59:00.810Z,0.00
2019-05-13T02:00:00.799Z,0.00
2019-05-13T02:01:00.724Z,0.00
2019-05-13T02:02:00.682Z,0.00
2019-05-13T02:03:00.740Z,0.00
2019-05-13T02:04:00.642Z,0.00
2019-05-13T02:05:00.649Z,0.00
2019-05-13T02:06:00.560Z,0.00
2019-05-13T02:07:00.540Z,0.00
2019-05-13T02:08:00.794Z,0.00
2019-05-13T02:09:00.573Z,0.00
2019-05-13T02:10:00.450Z,0.00
2019-05-13T02:11:00.503Z,0.00
2019-05-13T02:12:00.391Z,0.00
2019-05-13T02:13:00.398Z,0.00
2019-05-13T02:14:00.335Z,0.00
2019-05-13T02:15:00.411Z,0.00
2019-05-13T02:16:00.268Z,0.00
2019-05-13T02:17:00.317Z,0.00
2019-05-13T02:18:00.220Z,0.00
2019-05-13T02:19:00.239Z,0.00
2019-05-13T02:20:00.158Z,0.00
2019-05-13T02:21:00.156Z,0.00
2019-05-13T02:22:00.109Z,0.00
2019-05-13T02:23:00.087Z,0.00
2019-05-13T02:24:00.037Z,0.00
2019-05-13T02:25:00.078Z,0.00
2019-05-13T02:25:59.991Z,0.00
2019-05-13T02:26:59.988Z,0.00
2019-05-13T02:27:59.930Z,0.00
2019-05-13T02:28:59.998Z,0.00
2019-05-13T02:29:59.869Z,0.00
2019-05-13T02:30:59.908Z,0.00
2019-05-13T02:32:02.710Z,0.00
2019-05-13T02:33:02.940Z,0.00
2019-05-13T02:34:02.521Z,0.00
2019-05-13T02:35:02.714Z,0.00
2019-05-13T02:36:02.590Z,0.00
2019-05-13T02:37:02.844Z,0.00
2019-05-13T02:38:18.432Z,0.00
2019-05-13T02:39:02.210Z,0.00
2019-05-13T02:40:03.213Z,0.00
2019-05-13T02:41:02.595Z,0.00
2019-05-13T02:42:03.022Z,0.00
2019-05-13T02:43:02.706Z,0.00
2019-05-13T02:44:03.224Z,0.00
2019-05-13T02:45:03.407Z,0.00
2019-05-13T02:45:59.509Z,0.00
2019-05-13T02:47:02.957Z,0.00
2019-05-13T02:48:02.390Z,0.00
2019-05-13T02:48:59.318Z,0.00
2019-05-13T02:50:01.931Z,0.00
2019-05-13T02:50:59.261Z,0.00
2019-05-13T02:52:02.439Z,0.00
2019-05-13T02:53:02.105Z,0.00
2019-05-13T02:53:59.262Z,0.00
2019-05-13T02:54:59.156Z,0.00
2019-05-13T02:55:59.170Z,0.00
2019-05-13T02:56:59.092Z,0.00
2019-05-13T02:57:59.087Z,0.00
2019-05-13T02:58:59.029Z,0.00
2019-05-13T02:59:58.997Z,0.00
2019-05-13T03:00:58.982Z,0.00
2019-05-13T03:01:59.044Z,0.00
2019-05-13T03:02:58.908Z,0.00
2019-05-13T03:03:58.919Z,0.00
2019-05-13T03:04:58.979Z,0.00
2019-05-13T03:05:58.829Z,0.00
2019-05-13T03:06:58.837Z,0.00
2019-05-13T03:07:58.760Z,0.00
2019-05-13T03:08:58.861Z,0.00
2019-05-13T03:09:58.712Z,0.00
2019-05-13T03:10:58.771Z,0.00
2019-05-13T03:11:58.665Z,0.00
2019-05-13T03:12:58.677Z,0.00
2019-05-13T03:13:58.591Z,0.00
2019-05-13T03:14:58.724Z,0.00
2019-05-13T03:15:58.533Z,0.00
2019-05-13T03:16:58.613Z,0.00
2019-05-13T03:17:58.469Z,0.00
2019-05-13T03:18:58.507Z,0.00
2019-05-13T03:19:58.409Z,0.00
2019-05-13T03:20:58.379Z,0.00
2019-05-13T03:21:58.363Z,0.00
2019-05-13T03:22:58.439Z,0.00
2019-05-13T03:23:58.322Z,0.00
2019-05-13T03:24:58.360Z,0.00
2019-05-13T03:25:58.233Z,0.00
2019-05-13T03:26:58.258Z,0.00
2019-05-13T03:27:58.180Z,0.00
2019-05-13T03:28:58.179Z,0.00
2019-05-13T03:29:58.119Z,0.00
2019-05-13T03:30:58.190Z,0.00
2019-05-13T03:31:58.058Z,0.00
2019-05-13T03:33:02.287Z,0.00
2019-05-13T03:33:58.000Z,0.00
2019-05-13T03:34:58.009Z,0.00
2019-05-13T03:35:57.953Z,0.00
2019-05-13T03:36:58.246Z,0.00
2019-05-13T03:37:57.933Z,0.00
2019-05-13T03:39:05.532Z,0.00
2019-05-13T03:39:57.827Z,0.00
2019-05-13T03:40:57.862Z,0.00
2019-05-13T03:41:57.869Z,0.00
2019-05-13T03:42:57.730Z,0.00
2019-05-13T03:43:57.769Z,0.00
2019-05-13T03:44:57.679Z,0.00
2019-05-13T03:45:57.679Z,0.00
2019-05-13T03:46:57.616Z,0.00
2019-05-13T03:47:57.598Z,0.00
2019-05-13T03:48:57.598Z,0.00
2019-05-13T03:49:57.521Z,0.00
2019-05-13T03:50:57.508Z,0.00
2019-05-13T03:51:57.473Z,0.00
2019-05-13T03:52:57.430Z,5.63
2019-05-13T03:53:57.428Z,5.63
2019-05-13T03:54:57.380Z,5.63
2019-05-13T03:55:57.440Z,5.63
2019-05-13T03:56:57.319Z,5.63
2019-05-13T03:57:57.288Z,5.63
2019-05-13T03:58:57.258Z,5.63
2019-05-13T03:59:57.267Z,5.63
2019-05-13T04:00:57.210Z,5.63
2019-05-13T04:01:57.279Z,5.63
2019-05-13T04:02:57.146Z,5.63
2019-05-13T04:03:57.193Z,5.63
2019-05-13T04:04:59.298Z,11.25
2019-05-13T04:05:57.098Z,11.25
2019-05-13T04:06:57.039Z,11.25
2019-05-13T04:07:57.024Z,11.25
2019-05-13T04:09:17.317Z,11.25
2019-05-13T04:09:56.930Z,11.25
2019-05-13T04:10:56.937Z,11.25
2019-05-13T04:11:56.883Z,11.25
2019-05-13T04:12:56.860Z,11.25
2019-05-13T04:13:56.848Z,11.25
2019-05-13T04:14:56.780Z,16.88
2019-05-13T04:15:56.772Z,16.88
2019-05-13T04:16:56.730Z,16.88
2019-05-13T04:17:56.791Z,16.88
2019-05-13T04:18:56.663Z,16.88
2019-05-13T04:19:56.716Z,16.88
2019-05-13T04:20:56.602Z,16.88
2019-05-13T04:21:56.639Z,16.88
2019-05-13T04:22:56.538Z,16.88
2019-05-13T04:23:56.631Z,16.88
2019-05-13T04:24:56.478Z,16.88
2019-05-13T04:25:56.528Z,16.88
2019-05-13T04:26:56.418Z,16.88
2019-05-13T04:27:56.437Z,22.50
2019-05-13T04:28:56.376Z,22.50
2019-05-13T04:29:56.332Z,22.50
2019-05-13T04:30:56.300Z,22.50
2019-05-13T04:31:56.367Z,22.50
2019-05-13T04:32:56.242Z,22.50
2019-05-13T04:33:56.276Z,22.50
2019-05-13T04:34:56.178Z,22.50
2019-05-13T04:35:56.190Z,22.50
2019-05-13T04:36:56.118Z,22.50
2019-05-13T04:37:56.099Z,22.50
2019-05-13T04:38:56.058Z,22.50
2019-05-13T04:39:56.675Z,22.50
2019-05-13T04:40:56.004Z,22.50
2019-05-13T04:41:56.028Z,22.50
2019-05-13T04:42:55.941Z,22.50
2019-05-13T04:43:55.969Z,22.50
2019-05-13T04:44:55.882Z,22.50
2019-05-13T04:45:55.856Z,28.13
2019-05-13T04:46:55.870Z,28.13
2019-05-13T04:47:55.789Z,28.13
2019-05-13T04:48:55.873Z,28.13
2019-05-13T04:49:55.744Z,28.13
2019-05-13T04:50:55.702Z,33.75
2019-05-13T04:51:55.691Z,33.75
2019-05-13T04:52:55.696Z,33.75
2019-05-13T04:53:57.335Z,33.75
2019-05-13T04:54:55.608Z,33.75
2019-05-13T04:55:55.600Z,33.75
2019-05-13T04:56:55.619Z,39.38
2019-05-13T04:57:55.488Z,39.38
2019-05-13T04:58:55.538Z,39.38
2019-05-13T04:59:55.438Z,39.38
2019-05-13T05:01:02.343Z,39.38
2019-05-13T05:01:59.182Z,39.38
2019-05-13T05:02:55.658Z,45.00
2019-05-13T05:03:55.307Z,45.00
2019-05-13T05:04:55.373Z,45.00
2019-05-13T05:05:55.257Z,45.00
2019-05-13T05:06:55.228Z,45.00
2019-05-13T05:07:55.210Z,50.63
2019-05-13T05:08:55.205Z,50.63
2019-05-13T05:10:16.031Z,50.63
2019-05-13T05:10:55.208Z,50.63
2019-05-13T05:11:55.070Z,50.63
2019-05-13T05:12:55.117Z,50.63
2019-05-13T05:13:56.745Z,50.63
2019-05-13T05:14:55.039Z,50.63
2019-05-13T05:15:54.965Z,56.25
2019-05-13T05:16:54.954Z,56.25
2019-05-13T05:17:54.904Z,56.25
2019-05-13T05:18:54.957Z,56.25
2019-05-13T05:19:54.840Z,50.63
2019-05-13T05:20:54.887Z,50.63
2019-05-13T05:21:55.561Z,50.63
2019-05-13T05:22:54.751Z,50.63
2019-05-13T05:23:54.716Z,50.63
2019-05-13T05:24:54.797Z,50.63
2019-05-13T05:25:54.657Z,50.63
2019-05-13T05:26:54.725Z,50.63
2019-05-13T05:27:57.920Z,50.63
2019-05-13T05:28:54.568Z,56.25
2019-05-13T05:29:54.633Z,56.25
2019-05-13T05:30:54.517Z,50.63
2019-05-13T05:31:54.539Z,56.25
2019-05-13T05:32:54.450Z,56.25
2019-05-13T05:33:54.446Z,56.25
2019-05-13T05:34:54.389Z,56.25
2019-05-13T05:35:54.474Z,56.25
2019-05-13T05:36:54.336Z,50.63
2019-05-13T05:37:54.379Z,50.63
2019-05-13T05:38:54.279Z,50.63
2019-05-13T05:39:54.287Z,56.25
2019-05-13T05:40:54.228Z,56.25
2019-05-13T05:41:54.310Z,56.25
2019-05-13T05:42:54.157Z,56.25
2019-05-13T05:43:54.129Z,56.25
2019-05-13T05:44:54.098Z,56.25
2019-05-13T05:45:54.127Z,56.25
2019-05-13T05:46:54.041Z,56.25
2019-05-13T05:47:54.049Z,61.88
2019-05-13T05:48:54.048Z,61.88
2019-05-13T05:49:53.959Z,61.88
2019-05-13T05:50:53.968Z,61.88
2019-05-13T05:51:53.899Z,61.88
2019-05-13T05:52:53.967Z,61.88
2019-05-13T05:53:53.842Z,67.50
2019-05-13T05:54:53.808Z,67.50
2019-05-13T05:55:54.928Z,67.50
2019-05-13T05:56:53.749Z,67.50
2019-05-13T05:57:53.799Z,67.50
2019-05-13T05:58:53.687Z,67.50
2019-05-13T05:59:53.661Z,67.50
2019-05-13T06:00:53.718Z,61.88
2019-05-13T06:01:53.598Z,67.50
2019-05-13T06:02:53.631Z,67.50
2019-05-13T06:03:53.539Z,67.50
2019-05-13T06:04:53.520Z,61.88
2019-05-13T06:05:53.487Z,67.50
2019-05-13T06:06:53.556Z,67.50
2019-05-13T06:07:53.428Z,67.50
2019-05-13T06:08:53.469Z,73.13
2019-05-13T06:09:53.382Z,78.75
2019-05-13T06:10:53.909Z,78.75
2019-05-13T06:11:53.309Z,78.75
2019-05-13T06:12:53.401Z,78.75
2019-05-13T06:13:54.723Z,84.38
2019-05-13T06:14:53.309Z,84.38
2019-05-13T06:15:53.206Z,84.38
2019-05-13T06:16:53.171Z,90.00
2019-05-13T06:17:53.227Z,95.63
2019-05-13T06:18:53.129Z,90.00
2019-05-13T06:19:53.158Z,90.00
2019-05-13T06:20:53.149Z,95.63
2019-05-13T06:21:53.040Z,95.63
2019-05-13T06:22:53.067Z,101.25
2019-05-13T06:23:52.973Z,95.63
2019-05-13T06:24:52.968Z,95.63
2019-05-13T06:25:52.974Z,95.63
2019-05-13T06:26:53.012Z,95.63
2019-05-13T06:27:52.859Z,95.63
2019-05-13T06:28:52.898Z,95.63
2019-05-13T06:29:53.103Z,95.63
2019-05-13T06:30:52.811Z,95.63
2019-05-13T06:31:52.749Z,95.63
2019-05-13T06:32:52.818Z,95.63
2019-05-13T06:33:52.681Z,101.25
2019-05-13T06:34:52.758Z,95.63
2019-05-13T06:35:52.629Z,101.25
2019-05-13T06:36:52.601Z,101.25
2019-05-13T06:37:52.572Z,101.25
2019-05-13T06:38:52.657Z,101.25
2019-05-13T06:39:52.523Z,106.88
2019-05-13T06:41:03.363Z,106.88
2019-05-13T06:41:52.479Z,106.88
2019-05-13T06:42:52.427Z,106.88
2019-05-13T06:43:52.575Z,106.88
2019-05-13T06:44:52.372Z,106.88
2019-05-13T06:45:52.397Z,106.88
2019-05-13T06:46:52.330Z,106.88
2019-05-13T06:47:52.343Z,112.50
2019-05-13T06:48:52.263Z,112.50
2019-05-13T06:49:52.333Z,112.50
2019-05-13T06:50:52.290Z,112.50
2019-05-13T06:51:52.886Z,118.13
2019-05-13T06:52:52.187Z,118.13
2019-05-13T06:53:52.152Z,112.50
2019-05-13T06:54:52.226Z,118.13
2019-05-13T06:55:53.091Z,118.13
2019-05-13T06:56:52.028Z,112.50
2019-05-13T06:57:52.009Z,112.50
2019-05-13T06:58:52.200Z,112.50
2019-05-13T06:59:52.531Z,112.50
2019-05-13T07:00:52.023Z,106.88
2019-05-13T07:01:51.912Z,106.88
2019-05-13T07:02:51.973Z,106.88
2019-05-13T07:03:51.989Z,101.25
2019-05-13T07:04:51.933Z,101.25
2019-05-13T07:05:52.474Z,101.25
2019-05-13T07:07:07.686Z,101.25
2019-05-13T07:07:51.841Z,101.25
2019-05-13T07:08:52.250Z,101.25
2019-05-13T07:09:51.949Z,101.25
2019-05-13T07:10:51.732Z,101.25
2019-05-13T07:11:51.957Z,106.88
2019-05-13T07:12:52.035Z,106.88
2019-05-13T07:13:51.806Z,106.88
2019-05-13T07:14:51.974Z,101.25
2019-05-13T07:15:52.245Z,101.25
2019-05-13T07:16:52.426Z,101.25
2019-05-13T07:17:52.091Z,101.25
2019-05-13T07:18:52.370Z,106.88
2019-05-13T07:19:51.805Z,106.88
2019-05-13T07:20:53.007Z,112.50
2019-05-13T07:21:52.090Z,112.50
2019-05-13T07:22:53.177Z,112.50
2019-05-13T07:23:54.776Z,118.13
2019-05-13T07:24:51.938Z,118.13
2019-05-13T07:25:52.475Z,118.13
2019-05-13T07:26:52.328Z,118.13
2019-05-13T07:27:51.572Z,118.13
2019-05-13T07:28:52.405Z,118.13
2019-05-13T07:29:53.611Z,123.75
2019-05-13T07:30:51.740Z,123.75
2019-05-13T07:31:52.219Z,123.75
2019-05-13T07:32:52.390Z,123.75
2019-05-13T07:33:51.731Z,123.75
2019-05-13T07:34:53.145Z,123.75
2019-05-13T07:35:57.314Z,118.13
2019-05-13T07:36:51.362Z,118.13
2019-05-13T07:37:51.740Z,118.13
2019-05-13T07:38:52.043Z,118.13
2019-05-13T07:39:53.003Z,123.75
2019-05-13T07:40:52.168Z,129.38
2019-05-13T07:41:52.033Z,129.38
2019-05-13T07:42:52.278Z,123.75
2019-05-13T07:43:51.744Z,129.38
2019-05-13T07:44:52.184Z,135.00
2019-05-13T07:45:51.374Z,135.00
2019-05-13T07:46:52.431Z,135.00
2019-05-13T07:47:52.038Z,129.38
2019-05-13T07:48:52.095Z,129.38
2019-05-13T07:49:51.557Z,129.38
2019-05-13T07:50:59.589Z,135.00
2019-05-13T07:51:52.093Z,135.00
2019-05-13T07:52:51.496Z,135.00
2019-05-13T07:53:51.782Z,135.00
2019-05-13T07:54:52.075Z,135.00
2019-05-13T07:55:52.501Z,135.00
2019-05-13T07:56:52.327Z,129.38
2019-05-13T07:57:51.487Z,123.75
2019-05-13T07:58:52.364Z,118.13
2019-05-13T07:59:52.425Z,112.50
2019-05-13T08:00:51.965Z,106.88
2019-05-13T08:01:52.175Z,106.88
2019-05-13T08:02:52.281Z,112.50
2019-05-13T08:03:51.574Z,118.13
2019-05-13T08:04:52.874Z,118.13
2019-05-13T08:05:51.310Z,112.50
2019-05-13T08:06:52.404Z,112.50
2019-05-13T08:07:51.534Z,112.50
2019-05-13T08:08:52.281Z,112.50
2019-05-13T08:09:51.825Z,106.88
2019-05-13T08:10:51.956Z,106.88
2019-05-13T08:12:04.392Z,106.88
2019-05-13T08:12:51.670Z,106.88
2019-05-13T08:13:51.745Z,106.88
2019-05-13T08:14:52.186Z,95.63
2019-05-13T08:15:54.399Z,101.25
2019-05-13T08:16:51.802Z,101.25
2019-05-13T08:17:52.516Z,101.25
2019-05-13T08:18:52.147Z,106.88
2019-05-13T08:19:52.057Z,112.50
2019-05-13T08:20:52.276Z,118.13
2019-05-13T08:21:51.394Z,118.13
2019-05-13T08:22:51.966Z,112.50
2019-05-13T08:23:52.231Z,112.50
2019-05-13T08:24:52.038Z,112.50
2019-05-13T08:25:51.476Z,106.88
2019-05-13T08:26:50.710Z,101.25
2019-05-13T08:27:51.477Z,112.50
2019-05-13T08:29:00.085Z,112.50
2019-05-13T08:29:51.982Z,112.50
2019-05-13T08:30:51.664Z,112.50
2019-05-13T08:31:51.669Z,118.13
2019-05-13T08:32:49.448Z,118.13
2019-05-13T08:33:51.780Z,123.75
2019-05-13T08:34:54.314Z,118.13
2019-05-13T08:35:54.009Z,118.13
2019-05-13T08:36:51.429Z,118.13
2019-05-13T08:37:51.848Z,112.50
2019-05-13T08:38:51.914Z,123.75
2019-05-13T08:39:52.009Z,140.63
2019-05-13T08:40:51.199Z,140.63
2019-05-13T08:41:51.395Z,140.63
2019-05-13T08:42:49.191Z,140.63
2019-05-13T08:43:49.247Z,140.63
2019-05-13T08:44:52.024Z,135.00
2019-05-13T08:45:51.702Z,140.63
2019-05-13T08:46:49.088Z,140.63
2019-05-13T08:47:51.211Z,140.63
2019-05-13T08:48:51.604Z,140.63
2019-05-13T08:49:49.078Z,135.00
2019-05-13T08:50:48.979Z,123.75
2019-05-13T08:51:48.999Z,123.75
2019-05-13T08:52:51.107Z,140.63
2019-05-13T08:53:48.909Z,146.25
2019-05-13T08:54:48.911Z,157.50
2019-05-13T08:55:51.567Z,163.13
2019-05-13T08:56:48.927Z,163.13
2019-05-13T08:57:51.181Z,146.25
2019-05-13T08:58:48.789Z,163.13
2019-05-13T08:59:51.298Z,151.88
2019-05-13T09:00:48.767Z,151.88
2019-05-13T09:01:48.709Z,151.88
2019-05-13T09:02:48.779Z,151.88
2019-05-13T09:03:48.673Z,151.88
2019-05-13T09:04:48.679Z,151.88
2019-05-13T09:05:48.611Z,140.63
2019-05-13T09:06:48.694Z,135.00
2019-05-13T09:07:48.549Z,146.25
2019-05-13T09:08:48.601Z,140.63
2019-05-13T09:09:48.501Z,140.63
2019-05-13T09:10:48.519Z,135.00
2019-05-13T09:11:48.456Z,146.25
2019-05-13T09:12:48.529Z,151.88
2019-05-13T09:13:48.398Z,157.50
2019-05-13T09:14:48.370Z,157.50
2019-05-13T09:15:48.449Z,146.25
2019-05-13T09:16:48.331Z,151.88
2019-05-13T09:17:48.369Z,140.63
2019-05-13T09:18:48.279Z,140.63
2019-05-13T09:19:48.261Z,146.25
2019-05-13T09:20:48.238Z,146.25
2019-05-13T09:21:48.292Z,157.50
2019-05-13T09:22:48.179Z,157.50
2019-05-13T09:23:48.197Z,157.50
2019-05-13T09:24:48.129Z,157.50
2019-05-13T09:25:48.209Z,157.50
2019-05-13T09:26:48.072Z,151.88
2019-05-13T09:27:48.129Z,151.88
2019-05-13T09:28:48.038Z,157.50
2019-05-13T09:29:48.039Z,151.88
2019-05-13T09:30:47.989Z,151.88
2019-05-13T09:31:48.061Z,151.88
2019-05-13T09:32:47.949Z,140.63
2019-05-13T09:33:47.963Z,151.88
2019-05-13T09:34:47.901Z,146.25
2019-05-13T09:35:50.135Z,151.88
2019-05-13T09:36:47.853Z,151.88
2019-05-13T09:37:47.892Z,157.50
2019-05-13T09:38:47.798Z,157.50
2019-05-13T09:39:47.798Z,157.50
2019-05-13T09:40:47.747Z,157.50
2019-05-13T09:41:47.818Z,157.50
2019-05-13T09:42:51.866Z,151.88
2019-05-13T09:43:47.729Z,157.50
2019-05-13T09:44:47.658Z,157.50
2019-05-13T09:45:47.738Z,151.88
2019-05-13T09:46:47.618Z,151.88
2019-05-13T09:47:47.647Z,151.88
2019-05-13T09:48:47.557Z,151.88
2019-05-13T09:49:47.568Z,151.88
2019-05-13T09:50:47.509Z,151.88
2019-05-13T09:51:47.496Z,151.88
2019-05-13T09:52:47.500Z,151.88
2019-05-13T09:53:47.490Z,151.88
2019-05-13T09:54:47.442Z,151.88
2019-05-13T09:55:47.535Z,151.88
2019-05-13T09:56:47.412Z,151.88
2019-05-13T09:57:47.371Z,151.88
2019-05-13T09:58:47.420Z,157.50
2019-05-13T09:59:47.309Z,157.50
2019-05-13T10:00:47.509Z,163.13
2019-05-13T10:01:47.261Z,163.13
2019-05-13T10:02:47.348Z,163.13
2019-05-13T10:03:54.786Z,163.13
2019-05-13T10:04:47.199Z,163.13
2019-05-13T10:05:47.270Z,163.13
2019-05-13T10:06:47.148Z,151.88
2019-05-13T10:07:47.130Z,163.13
2019-05-13T10:08:47.209Z,157.50
2019-05-13T10:09:48.343Z,174.38
2019-05-13T10:10:47.101Z,185.63
2019-05-13T10:11:47.039Z,191.25
2019-05-13T10:13:07.064Z,196.88
2019-05-13T10:13:46.988Z,191.25
2019-05-13T10:14:47.029Z,180.00
2019-05-13T10:15:48.864Z,185.63
2019-05-13T10:16:47.039Z,185.63
2019-05-13T10:17:46.910Z,185.63
2019-05-13T10:18:46.948Z,185.63
2019-05-13T10:19:46.857Z,185.63
2019-05-13T10:20:46.864Z,185.63
2019-05-13T10:21:46.817Z,185.63
2019-05-13T10:22:46.881Z,185.63
2019-05-13T10:23:46.767Z,180.00
2019-05-13T10:24:46.787Z,180.00
2019-05-13T10:25:46.728Z,180.00
2019-05-13T10:26:46.798Z,180.00
2019-05-13T10:27:46.691Z,180.00
2019-05-13T10:28:46.663Z,174.38
2019-05-13T10:29:46.647Z,180.00
2019-05-13T10:30:46.766Z,180.00
2019-05-13T10:31:46.598Z,180.00
2019-05-13T10:32:46.649Z,180.00
2019-05-13T10:33:46.649Z,180.00
2019-05-13T10:34:46.535Z,168.75
2019-05-13T10:35:46.559Z,180.00
2019-05-13T10:36:46.488Z,180.00
2019-05-13T10:37:46.582Z,180.00
2019-05-13T10:38:46.450Z,174.38
2019-05-13T10:39:46.437Z,185.63
2019-05-13T10:40:46.491Z,185.63
2019-05-13T10:41:46.387Z,180.00
2019-05-13T10:42:46.419Z,180.00
2019-05-13T10:43:46.359Z,180.00
2019-05-13T10:44:46.328Z,185.63
2019-05-13T10:45:46.319Z,185.63
2019-05-13T10:46:46.278Z,185.63
2019-05-13T10:47:47.359Z,185.63
2019-05-13T10:48:46.238Z,185.63
2019-05-13T10:49:46.230Z,185.63
2019-05-13T10:50:46.257Z,185.63
2019-05-13T10:51:46.189Z,185.63
2019-05-13T10:52:46.274Z,185.63
2019-05-13T10:53:46.141Z,174.38
2019-05-13T10:54:46.121Z,163.13
2019-05-13T10:55:46.103Z,174.38
2019-05-13T10:56:46.088Z,180.00
2019-05-13T10:57:46.060Z,174.38
2019-05-13T10:58:47.128Z,180.00
2019-05-13T10:59:46.022Z,180.00
2019-05-13T11:00:46.003Z,174.38
2019-05-13T11:01:46.051Z,180.00
2019-05-13T11:02:45.968Z,180.00
2019-05-13T11:03:46.052Z,174.38
2019-05-13T11:04:45.930Z,174.38
2019-05-13T11:05:45.909Z,185.63
2019-05-13T11:06:45.885Z,185.63
2019-05-13T11:07:45.975Z,185.63
2019-05-13T11:08:45.827Z,185.63
2019-05-13T11:09:45.890Z,185.63
2019-05-13T11:10:45.913Z,185.63
2019-05-13T11:11:45.769Z,185.63
2019-05-13T11:12:45.808Z,185.63
2019-05-13T11:13:55.155Z,185.63
2019-05-13T11:14:46.664Z,185.63
2019-05-13T11:15:45.981Z,185.63
2019-05-13T11:16:45.717Z,185.63
2019-05-13T11:17:45.650Z,180.00
2019-05-13T11:18:45.742Z,185.63
2019-05-13T11:19:45.610Z,191.25
2019-05-13T11:20:45.655Z,185.63
2019-05-13T11:21:50.476Z,191.25
2019-05-13T11:22:45.560Z,185.63
2019-05-13T11:23:45.569Z,185.63
2019-05-13T11:24:45.518Z,191.25
2019-05-13T11:25:45.582Z,191.25
2019-05-13T11:26:45.493Z,185.63
2019-05-13T11:27:45.460Z,185.63
2019-05-13T11:28:45.500Z,185.63
2019-05-13T11:29:45.417Z,185.63
2019-05-13T11:30:45.413Z,185.63
2019-05-13T11:31:45.379Z,185.63
2019-05-13T11:32:45.430Z,185.63
2019-05-13T11:33:45.339Z,185.63
2019-05-13T11:34:45.353Z,185.63
2019-05-13T11:35:45.312Z,185.63
2019-05-13T11:36:45.351Z,185.63
2019-05-13T11:37:45.358Z,185.63
2019-05-13T11:38:45.239Z,185.63
2019-05-13T11:39:45.268Z,185.63
2019-05-13T11:40:45.209Z,185.63
2019-05-13T11:41:45.288Z,185.63
2019-05-13T11:42:45.189Z,185.63
2019-05-13T11:43:45.150Z,185.63
2019-05-13T11:44:45.212Z,185.63
2019-05-13T11:45:45.112Z,185.63
2019-05-13T11:46:45.129Z,185.63
2019-05-13T11:47:45.070Z,185.63
2019-05-13T11:48:45.132Z,191.25
2019-05-13T11:49:45.040Z,191.25
2019-05-13T11:50:50.114Z,191.25
2019-05-13T11:51:45.002Z,191.25
2019-05-13T11:52:45.066Z,191.25
2019-05-13T11:53:44.962Z,191.25
2019-05-13T11:54:44.971Z,191.25
2019-05-13T11:55:44.919Z,191.25
2019-05-13T11:56:49.778Z,191.25
2019-05-13T11:57:44.890Z,191.25
2019-05-13T11:58:44.859Z,191.25
2019-05-13T11:59:44.857Z,191.25
2019-05-13T12:00:44.909Z,191.25
2019-05-13T12:01:44.807Z,191.25
2019-05-13T12:02:51.031Z,191.25
2019-05-13T12:03:44.851Z,191.25
2019-05-13T12:04:44.750Z,191.25
2019-05-13T12:05:44.871Z,191.25
2019-05-13T12:07:44.751Z,191.25
2019-05-13T12:08:51.053Z,191.25
2019-05-13T12:09:44.656Z,191.25
2019-05-13T12:10:44.670Z,191.25
2019-05-13T12:11:44.619Z,191.25
2019-05-13T12:12:44.689Z,191.25
2019-05-13T12:13:44.587Z,191.25
2019-05-13T12:15:48.898Z,191.25
2019-05-13T12:16:44.528Z,185.63
2019-05-13T12:17:44.519Z,191.25
2019-05-13T12:18:44.529Z,196.88
2019-05-13T12:19:44.538Z,196.88
2019-05-13T12:20:44.457Z,196.88
2019-05-13T12:21:46.682Z,196.88
2019-05-13T12:22:44.418Z,196.88
2019-05-13T12:23:44.458Z,196.88
2019-05-13T12:24:44.391Z,196.88
2019-05-13T12:25:44.403Z,196.88
2019-05-13T12:26:44.340Z,191.25
2019-05-13T12:27:44.388Z,191.25
2019-05-13T12:28:44.296Z,185.63
2019-05-13T12:29:44.297Z,185.63
2019-05-13T12:30:44.258Z,185.63
2019-05-13T12:31:44.305Z,185.63
2019-05-13T12:32:44.227Z,185.63
2019-05-13T12:33:44.262Z,185.63
2019-05-13T12:34:45.734Z,185.63
2019-05-13T12:35:44.169Z,185.63
2019-05-13T12:36:44.261Z,185.63
2019-05-13T12:37:44.131Z,185.63
2019-05-13T12:38:44.545Z,174.38
2019-05-13T12:39:44.270Z,196.88
2019-05-13T12:40:44.079Z,196.88
2019-05-13T12:41:44.106Z,196.88
2019-05-13T12:42:47.114Z,196.88
2019-05-13T12:43:44.018Z,196.88
2019-05-13T12:45:00.480Z,196.88
2019-05-13T12:45:43.984Z,196.88
2019-05-13T12:47:44.018Z,196.88
2019-05-13T12:48:43.927Z,196.88
2019-05-13T12:49:44.272Z,196.88
2019-05-13T12:50:43.898Z,196.88